Time;durP1;ratioP1;P1;durP2;ratioP2;P2;SDS_P1;SDS_P2;PMS_P1;PMS_P2;Temp;Humidity;BMP_temperature;BMP_pressure;BME280_temperature;BME280_humidity;BME280_pressure;Samples;Min_cycle;Max_cycle;Signal;HPM_P1;HPM_P2
2022/09/02 00:02:15;;;;;;;3.90;3.60;;;17.10;99.90;;;;;;5030134;28;20249;-67
2022/09/02 00:04:41;;;;;;;3.93;3.57;;;17.10;99.90;;;;;;5031271;28;20191;-67
2022/09/02 00:07:06;;;;;;;3.80;3.50;;;17.10;99.90;;;;;;5032096;28;20179;-66
2022/09/02 00:09:32;;;;;;;3.80;3.43;;;17.10;99.90;;;;;;5031461;28;20262;-67
2022/09/02 00:11:58;;;;;;;4.03;3.63;;;17.10;99.90;;;;;;5032002;28;20167;-66
2022/09/02 00:14:32;;;;;;;4.33;3.70;;;17.10;99.90;;;;;;5031052;28;20182;-67
2022/09/02 00:16:59;;;;;;;3.60;3.30;;;17.10;99.90;;;;;;5032017;28;20172;-67
2022/09/02 00:19:26;;;;;;;3.50;3.30;;;17.10;99.90;;;;;;5031331;28;20726;-66
2022/09/02 00:21:53;;;;;;;3.50;3.30;;;17.10;99.90;;;;;;5031810;28;20199;-66
2022/09/02 00:24:20;;;;;;;3.60;3.40;;;17.00;99.90;;;;;;5030549;28;20202;-66
2022/09/02 00:26:46;;;;;;;4.50;3.53;;;17.00;99.90;;;;;;5031857;28;20202;-66
2022/09/02 00:29:14;;;;;;;3.80;3.60;;;17.00;99.90;;;;;;5031168;28;20168;-65
2022/09/02 00:31:41;;;;;;;3.60;3.40;;;17.00;99.90;;;;;;5031785;28;20710;-66
2022/09/02 00:34:08;;;;;;;3.50;3.30;;;17.00;99.90;;;;;;5031064;28;20206;-65
2022/09/02 00:36:34;;;;;;;10.13;3.87;;;17.00;99.90;;;;;;5031449;28;20195;-66
2022/09/02 00:39:00;;;;;;;3.77;3.47;;;16.90;99.90;;;;;;5031363;28;20175;-65
2022/09/02 00:41:28;;;;;;;3.87;3.57;;;16.90;99.90;;;;;;5031345;28;20655;-67
2022/09/02 00:44:02;;;;;;;3.77;3.57;;;16.90;99.90;;;;;;5030988;28;20264;-66
2022/09/02 00:46:29;;;;;;;3.60;3.40;;;16.80;99.90;;;;;;5031397;28;20274;-66
2022/09/02 00:49:09;;;;;;;3.63;3.33;;;16.80;99.90;;;;;;5031358;28;20175;-67
2022/09/02 00:52:03;;;;;;;3.90;3.60;;;16.70;99.90;;;;;;5031331;28;20261;-67
2022/09/02 00:54:31;;;;;;;3.53;3.33;;;16.70;99.90;;;;;;5030696;28;20190;-67
2022/09/02 00:56:59;;;;;;;3.90;3.70;;;16.70;99.90;;;;;;5031252;28;20195;-66
2022/09/02 00:59:40;;;;;;;3.80;3.60;;;16.60;99.90;;;;;;5031467;28;20176;-67
2022/09/02 01:02:06;;;;;;;3.93;3.50;;;16.50;99.90;;;;;;5030966;28;20389;-66
2022/09/02 01:04:32;;;;;;;4.37;3.57;;;16.50;99.90;;;;;;5030922;28;20164;-66
2022/09/02 01:06:58;;;;;;;3.57;3.30;;;16.50;99.90;;;;;;5031020;28;20258;-67
2022/09/02 01:09:23;;;;;;;3.83;3.57;;;16.40;99.90;;;;;;5031275;28;20587;-67
2022/09/02 01:11:53;;;;;;;3.77;3.57;;;16.40;99.90;;;;;;5031071;28;20263;-66
2022/09/02 01:14:19;;;;;;;4.20;3.90;;;16.40;99.90;;;;;;5030907;28;20186;-67
2022/09/02 01:16:49;;;;;;;4.27;3.97;;;16.40;99.90;;;;;;5030674;28;20253;-66
2022/09/02 01:19:29;;;;;;;3.80;3.60;;;16.30;99.90;;;;;;5031017;28;20164;-66
2022/09/02 01:21:56;;;;;;;4.13;3.83;;;16.30;99.90;;;;;;5030753;28;20222;-65
2022/09/02 01:24:26;;;;;;;4.20;3.80;;;16.30;99.90;;;;;;5030475;28;20591;-66
2022/09/02 01:26:54;;;;;;;3.83;3.53;;;16.20;99.90;;;;;;5031202;28;20534;-66
2022/09/02 01:29:20;;;;;;;3.90;3.60;;;16.20;99.90;;;;;;5030586;28;20226;-66
2022/09/02 01:31:46;;;;;;;4.03;3.77;;;16.10;99.90;;;;;;5030753;28;20179;-66
2022/09/02 01:34:11;;;;;;;3.43;3.23;;;16.10;99.90;;;;;;5030773;28;20178;-66
2022/09/02 01:36:39;;;;;;;3.90;3.70;;;16.00;99.90;;;;;;5032432;28;20211;-67
2022/09/02 01:39:05;;;;;;;3.97;3.77;;;16.00;99.90;;;;;;5034796;28;20250;-66
2022/09/02 01:41:31;;;;;;;4.30;4.10;;;16.00;99.90;;;;;;5034303;28;20180;-64
2022/09/02 01:43:56;;;;;;;4.33;4.03;;;15.90;99.90;;;;;;5033923;28;20664;-65
2022/09/02 01:46:22;;;;;;;5.00;4.60;;;15.90;99.90;;;;;;5034313;28;20278;-66
2022/09/02 01:48:49;;;;;;;4.60;4.30;;;15.90;99.90;;;;;;5034573;28;20175;-65
2022/09/02 01:51:18;;;;;;;4.10;3.70;;;15.80;99.90;;;;;;5034208;28;20175;-66
2022/09/02 01:53:44;;;;;;;4.20;3.90;;;15.80;99.90;;;;;;5034377;28;20172;-65
2022/09/02 01:56:10;;;;;;;4.27;4.00;;;15.80;99.90;;;;;;5033978;28;20281;-66
2022/09/02 01:58:35;;;;;;;4.73;4.43;;;15.70;99.90;;;;;;5034155;28;20330;-65
2022/09/02 02:01:02;;;;;;;4.60;4.23;;;15.70;99.90;;;;;;5034197;28;20610;-67
2022/09/02 02:03:27;;;;;;;6.53;4.20;;;15.70;99.90;;;;;;5033553;28;20195;-65
2022/09/02 02:05:54;;;;;;;4.43;4.00;;;15.60;99.90;;;;;;5033960;28;20348;-66
2022/09/02 02:08:20;;;;;;;3.90;3.70;;;15.60;99.90;;;;;;5033897;28;20584;-65
2022/09/02 02:10:46;;;;;;;4.20;4.00;;;15.50;99.90;;;;;;5033918;28;20176;-66
2022/09/02 02:13:12;;;;;;;4.50;4.17;;;15.50;99.90;;;;;;5033873;28;20539;-66
2022/09/02 02:15:39;;;;;;;4.43;4.03;;;15.50;99.90;;;;;;5033217;28;20286;-66
2022/09/02 02:18:05;;;;;;;5.20;4.03;;;15.50;99.90;;;;;;5034049;28;20641;-67
2022/09/02 02:20:31;;;;;;;6.23;3.70;;;15.50;99.90;;;;;;5033449;28;20184;-66
2022/09/02 02:22:57;;;;;;;3.83;3.63;;;15.40;99.90;;;;;;5033997;28;20608;-67
2022/09/02 02:25:22;;;;;;;4.27;3.87;;;15.40;99.90;;;;;;5032964;28;20289;-66
2022/09/02 02:27:48;;;;;;;4.33;4.07;;;15.40;99.90;;;;;;5033962;28;20164;-66
2022/09/02 02:30:15;;;;;;;6.57;3.90;;;15.40;99.90;;;;;;5033480;28;20171;-66
2022/09/02 02:32:42;;;;;;;3.60;3.40;;;15.40;99.90;;;;;;5033779;28;20548;-66
2022/09/02 02:35:08;;;;;;;4.13;3.87;;;15.40;99.90;;;;;;5032937;28;20261;-67
2022/09/02 02:37:34;;;;;;;4.13;3.93;;;15.40;99.90;;;;;;5033523;28;20175;-66
2022/09/02 02:39:59;;;;;;;3.80;3.60;;;15.40;99.90;;;;;;5033378;28;20191;-66
2022/09/02 02:42:25;;;;;;;4.80;4.40;;;15.40;99.90;;;;;;5033365;28;20665;-66
2022/09/02 02:44:50;;;;;;;4.43;4.13;;;15.40;99.90;;;;;;5032820;28;20195;-65
2022/09/02 02:47:16;;;;;;;4.83;4.20;;;15.40;99.90;;;;;;5032771;28;20167;-66
2022/09/02 02:49:43;;;;;;;7.50;4.30;;;15.40;99.90;;;;;;5033003;28;20184;-66
2022/09/02 02:52:10;;;;;;;4.30;4.00;;;15.50;99.90;;;;;;5033257;28;20237;-66
2022/09/02 02:54:36;;;;;;;4.10;3.90;;;15.50;99.90;;;;;;5032647;28;20190;-66
2022/09/02 02:57:03;;;;;;;4.37;3.97;;;15.50;99.90;;;;;;5033375;28;20178;-65
2022/09/02 02:59:29;;;;;;;5.50;4.97;;;15.60;99.90;;;;;;5031492;28;20827;-65
2022/09/02 03:01:55;;;;;;;4.30;4.03;;;15.60;99.90;;;;;;5032002;28;20167;-65
2022/09/02 03:04:21;;;;;;;6.30;4.70;;;15.50;99.90;;;;;;5032606;28;20179;-65
2022/09/02 03:06:47;;;;;;;3.87;3.67;;;15.50;99.90;;;;;;5033038;28;20638;-66
2022/09/02 03:09:12;;;;;;;4.50;4.20;;;15.50;99.90;;;;;;5032732;28;20246;-66
2022/09/02 03:11:38;;;;;;;4.00;3.80;;;15.50;99.90;;;;;;5032803;28;20262;-65
2022/09/02 03:14:04;;;;;;;4.40;4.07;;;15.50;99.90;;;;;;5032440;28;20584;-66
2022/09/02 03:16:30;;;;;;;4.00;3.80;;;15.50;99.90;;;;;;5032457;28;20650;-65
2022/09/02 03:18:55;;;;;;;4.43;4.13;;;15.50;99.90;;;;;;5031744;28;20215;-64
2022/09/02 03:21:21;;;;;;;4.97;4.73;;;15.50;99.90;;;;;;5032633;28;20179;-65
2022/09/02 03:23:47;;;;;;;4.47;4.13;;;15.50;99.90;;;;;;5031972;28;20215;-66
2022/09/02 03:26:17;;;;;;;5.60;5.20;;;15.50;99.90;;;;;;5032932;28;20199;-66
2022/09/02 03:28:42;;;;;;;8.77;4.40;;;15.50;99.90;;;;;;5032651;28;20215;-66
2022/09/02 03:31:17;;;;;;;4.27;4.07;;;15.50;99.90;;;;;;5032624;28;20214;-64
2022/09/02 03:33:43;;;;;;;4.40;4.10;;;15.50;99.90;;;;;;5029519;28;20202;-65
2022/09/02 03:36:22;;;;;;;4.87;4.43;;;15.60;99.90;;;;;;5032141;28;20223;-66
2022/09/02 03:38:47;;;;;;;4.30;4.00;;;15.60;99.90;;;;;;5032269;28;20187;-66
2022/09/02 03:41:13;;;;;;;4.63;4.23;;;15.60;99.90;;;;;;5032423;28;20175;-66
2022/09/02 03:43:39;;;;;;;4.53;4.27;;;15.60;99.90;;;;;;5031628;28;20210;-66
2022/09/02 03:46:04;;;;;;;5.13;4.80;;;15.70;99.90;;;;;;5032439;28;20561;-67
2022/09/02 03:48:30;;;;;;;5.47;4.67;;;15.60;99.90;;;;;;5031685;28;20187;-66
2022/09/02 03:50:56;;;;;;;5.03;4.13;;;15.60;99.90;;;;;;5032494;28;20241;-66
2022/09/02 03:53:21;;;;;;;5.10;4.70;;;15.60;99.90;;;;;;5031814;28;20187;-65
2022/09/02 03:55:47;;;;;;;4.80;4.43;;;15.60;99.90;;;;;;5031462;28;20569;-66
2022/09/02 03:58:13;;;;;;;4.87;4.47;;;15.60;99.90;;;;;;5032168;28;20207;-65
2022/09/02 04:00:40;;;;;;;5.43;5.03;;;15.50;99.90;;;;;;5030915;28;20187;-66
2022/09/02 04:03:06;;;;;;;5.03;4.73;;;15.50;99.90;;;;;;5031842;28;20215;-66
2022/09/02 04:05:32;;;;;;;4.97;4.53;;;15.40;99.90;;;;;;5031474;28;20187;-66
2022/09/02 04:07:58;;;;;;;4.87;4.47;;;15.40;99.90;;;;;;5031533;28;20641;-67
2022/09/02 04:10:24;;;;;;;4.73;4.30;;;15.30;99.90;;;;;;5031827;28;20168;-67
2022/09/02 04:12:50;;;;;;;5.50;5.10;;;15.20;99.90;;;;;;5031983;28;20653;-66
2022/09/02 04:15:16;;;;;;;5.57;5.07;;;15.20;99.90;;;;;;5031396;28;20616;-67
2022/09/02 04:17:42;;;;;;;4.87;4.57;;;15.20;99.90;;;;;;5031623;28;20198;-66
2022/09/02 04:20:11;;;;;;;4.70;4.40;;;15.10;99.90;;;;;;5031811;28;20587;-67
2022/09/02 04:22:37;;;;;;;9.00;5.03;;;15.20;99.90;;;;;;5031587;28;20229;-67
2022/09/02 04:25:05;;;;;;;5.30;4.67;;;15.10;99.90;;;;;;5031343;28;20187;-66
2022/09/02 04:27:30;;;;;;;4.60;4.30;;;15.20;99.90;;;;;;5031175;28;20214;-67
2022/09/02 04:29:56;;;;;;;7.83;4.40;;;15.20;99.90;;;;;;5031719;28;20207;-66
2022/09/02 04:32:22;;;;;;;4.60;4.17;;;15.30;99.90;;;;;;5031365;28;20175;-66
2022/09/02 04:34:48;;;;;;;5.43;3.87;;;15.30;99.90;;;;;;5031634;28;20207;-65
2022/09/02 04:37:14;;;;;;;8.37;5.00;;;15.30;99.90;;;;;;5031594;28;20190;-65
2022/09/02 04:39:40;;;;;;;4.40;4.10;;;15.30;99.90;;;;;;5031829;28;20242;-65
2022/09/02 04:42:05;;;;;;;7.97;4.30;;;15.30;99.90;;;;;;5031728;28;20207;-66
2022/09/02 04:44:32;;;;;;;4.63;3.73;;;15.30;99.90;;;;;;5031183;28;20649;-66
2022/09/02 04:46:57;;;;;;;4.63;4.23;;;15.40;99.90;;;;;;5031809;28;20183;-66
2022/09/02 04:49:23;;;;;;;4.70;4.40;;;15.30;99.90;;;;;;5031478;28;20545;-64
2022/09/02 04:51:49;;;;;;;4.80;4.50;;;15.40;99.90;;;;;;5031461;28;20209;-65
2022/09/02 04:54:15;;;;;;;5.77;4.10;;;15.40;99.90;;;;;;5030804;28;20608;-64
2022/09/02 04:56:41;;;;;;;4.50;4.10;;;15.50;99.90;;;;;;5030967;28;20273;-64
2022/09/02 04:59:07;;;;;;;8.80;3.90;;;15.60;99.90;;;;;;5031425;28;20171;-64
2022/09/02 05:01:35;;;;;;;4.57;3.80;;;15.60;99.90;;;;;;5031175;28;20225;-64
2022/09/02 05:04:03;;;;;;;7.40;3.90;;;15.70;99.90;;;;;;5030964;28;20207;-64
2022/09/02 05:06:28;;;;;;;4.67;4.07;;;15.70;99.90;;;;;;5030980;28;20230;-64
2022/09/02 05:08:56;;;;;;;4.33;4.10;;;15.70;99.90;;;;;;5031225;28;20179;-64
2022/09/02 05:11:27;;;;;;;4.17;3.80;;;15.80;99.90;;;;;;5032981;28;20176;-64
2022/09/02 05:13:53;;;;;;;4.70;4.23;;;15.90;99.90;;;;;;5034789;28;20183;-64
2022/09/02 05:16:25;;;;;;;4.97;3.70;;;15.90;99.90;;;;;;5034656;28;20203;-65
2022/09/02 05:18:53;;;;;;;4.00;3.70;;;16.00;99.90;;;;;;5035150;28;20186;-64
2022/09/02 05:21:19;;;;;;;5.30;5.00;;;16.10;99.90;;;;;;5034861;28;20294;-64
2022/09/02 05:23:45;;;;;;;3.90;3.60;;;16.10;99.90;;;;;;5034501;28;20213;-65
2022/09/02 05:26:12;;;;;;;4.50;4.20;;;16.20;99.90;;;;;;5034585;28;20286;-64
2022/09/02 05:28:39;;;;;;;4.90;4.20;;;16.20;99.90;;;;;;5033694;28;20176;-64
2022/09/02 05:31:11;;;;;;;3.90;3.70;;;16.30;99.90;;;;;;5034804;28;20221;-64
2022/09/02 05:33:39;;;;;;;4.30;4.00;;;16.30;99.90;;;;;;5014640;28;20176;-64
2022/09/02 05:36:16;;;;;;;4.57;4.03;;;16.40;99.90;;;;;;5015408;28;20218;-64
2022/09/02 05:38:44;;;;;;;4.40;3.93;;;16.40;99.90;;;;;;5031620;28;20190;-64
2022/09/02 05:41:17;;;;;;;4.37;3.70;;;16.50;99.90;;;;;;5034682;28;20250;-65
2022/09/02 05:43:43;;;;;;;3.60;3.33;;;16.50;99.90;;;;;;5034200;28;20207;-64
2022/09/02 05:46:12;;;;;;;4.20;3.80;;;16.60;99.90;;;;;;5034629;28;20202;-65
2022/09/02 05:51:23;;;;;;;3.40;3.20;;;16.90;99.90;;;;;;5034200;28;20271;-65
2022/09/02 05:53:57;;;;;;;3.70;3.40;;;17.10;99.90;;;;;;5033514;28;20183;-65
2022/09/02 05:56:23;;;;;;;3.80;3.60;;;17.30;99.90;;;;;;5033766;28;20199;-66
2022/09/02 05:58:49;;;;;;;3.80;3.60;;;17.40;99.90;;;;;;5034272;28;20190;-64
2022/09/02 06:01:17;;;;;;;4.03;3.80;;;17.60;99.90;;;;;;5032966;28;20179;-64
2022/09/02 06:03:43;;;;;;;3.93;3.10;;;17.70;99.90;;;;;;5033677;28;20207;-64
2022/09/02 06:06:09;;;;;;;3.77;3.47;;;17.90;99.90;;;;;;5034155;28;20195;-64
2022/09/02 06:08:35;;;;;;;3.80;3.50;;;18.00;99.90;;;;;;5033929;28;20195;-65
2022/09/02 06:11:03;;;;;;;5.70;4.10;;;18.10;99.90;;;;;;5034389;28;20176;-66
2022/09/02 06:13:30;;;;;;;4.30;3.47;;;18.20;99.90;;;;;;5032693;28;20179;-65
2022/09/02 06:15:56;;;;;;;3.30;3.10;;;18.40;99.90;;;;;;5033854;28;20211;-63
2022/09/02 06:18:23;;;;;;;6.93;3.10;;;18.70;99.90;;;;;;5033743;28;20211;-64
2022/09/02 06:20:49;;;;;;;3.77;3.43;;;19.00;99.90;;;;;;5033991;28;20186;-64
2022/09/02 06:23:15;;;;;;;3.20;2.90;;;19.30;99.90;;;;;;5032672;28;20207;-63
2022/09/02 06:25:43;;;;;;;3.47;3.17;;;19.70;99.90;;;;;;5033364;28;20573;-64
2022/09/02 06:28:10;;;;;;;2.97;2.77;;;20.00;99.90;;;;;;5033582;28;20182;-63
2022/09/02 06:30:39;;;;;;;3.30;3.10;;;20.20;99.90;;;;;;5033875;28;20258;-62
2022/09/02 06:33:05;;;;;;;3.37;3.10;;;20.20;99.90;;;;;;5033648;28;20225;-64
2022/09/02 06:35:37;;;;;;;5.00;2.80;;;20.30;99.90;;;;;;5033076;28;20215;-64
2022/09/02 06:38:04;;;;;;;3.23;3.03;;;20.20;99.90;;;;;;5029061;28;20274;-64
2022/09/02 06:40:29;;;;;;;3.30;3.10;;;20.20;99.90;;;;;;5033074;28;20533;-64
2022/09/02 06:42:55;;;;;;;3.17;2.97;;;20.30;99.90;;;;;;5032786;28;20218;-65
2022/09/02 06:45:23;;;;;;;3.73;3.20;;;20.50;99.90;;;;;;5033032;28;20199;-65
2022/09/02 06:47:49;;;;;;;4.60;3.35;;;20.70;99.90;;;;;;5032846;28;20205;-63
2022/09/02 06:50:15;;;;;;;4.32;3.10;;;20.80;99.90;;;;;;5033002;28;20540;-64
2022/09/02 06:52:41;;;;;;;5.10;3.72;;;20.80;99.90;;;;;;5032940;28;20266;-64
2022/09/02 06:55:07;;;;;;;7.05;3.40;;;20.90;99.90;;;;;;5032656;28;20278;-65
2022/09/02 06:57:34;;;;;;;5.68;3.38;;;20.90;99.90;;;;;;5032770;28;20460;-65
2022/09/02 06:59:59;;;;;;;3.95;3.65;;;21.00;99.90;;;;;;5033046;28;20538;-64
2022/09/02 07:02:25;;;;;;;6.57;6.15;;;21.00;99.90;;;;;;5032682;28;20259;-64
2022/09/02 07:05:08;;;;;;;5.95;3.38;;;21.30;99.90;;;;;;5032627;28;20230;-64
2022/09/02 07:07:39;;;;;;;2.95;2.75;;;21.50;99.90;;;;;;5032642;28;20517;-64
2022/09/02 07:10:07;;;;;;;3.28;3.08;;;21.80;99.90;;;;;;5032687;28;20512;-65
2022/09/02 07:12:34;;;;;;;4.32;3.30;;;22.00;99.90;;;;;;5032655;28;20193;-64
2022/09/02 07:15:00;;;;;;;3.10;2.90;;;22.20;99.90;;;;;;5032229;28;20274;-65
2022/09/02 07:17:26;;;;;;;3.67;3.25;;;22.10;99.90;;;;;;5032471;28;20629;-64
2022/09/02 07:19:54;;;;;;;4.28;3.58;;;22.30;99.90;;;;;;5032466;28;20183;-64
2022/09/02 07:22:20;;;;;;;3.47;3.10;;;22.50;99.90;;;;;;5032255;28;20677;-64
2022/09/02 07:24:46;;;;;;;2.95;2.75;;;22.90;99.90;;;;;;5032274;28;20230;-64
2022/09/02 07:27:11;;;;;;;3.83;3.53;;;23.10;99.90;;;;;;5032272;28;20582;-64
2022/09/02 07:29:37;;;;;;;3.30;3.00;;;23.30;99.90;;;;;;5032045;28;20582;-65
2022/09/02 07:32:03;;;;;;;3.75;3.35;;;23.30;99.90;;;;;;5031984;28;20179;-65
2022/09/02 07:34:29;;;;;;;5.22;3.28;;;23.40;99.90;;;;;;5031735;28;20261;-66
2022/09/02 07:36:54;;;;;;;3.47;3.00;;;23.50;99.90;;;;;;5032070;28;20182;-66
2022/09/02 07:39:20;;;;;;;3.40;2.70;;;23.60;99.90;;;;;;5031634;28;20652;-65
2022/09/02 07:41:49;;;;;;;4.53;2.80;;;23.80;99.90;;;;;;5032086;28;20167;-65
2022/09/02 07:44:16;;;;;;;3.40;3.10;;;24.20;99.90;;;;;;5031643;28;20187;-65
2022/09/02 07:46:42;;;;;;;3.63;3.40;;;24.40;99.90;;;;;;5032331;28;20191;-65
2022/09/02 07:49:10;;;;;;;3.35;3.10;;;24.60;99.90;;;;;;5031945;28;20183;-63
2022/09/02 07:51:39;;;;;;;3.22;3.03;;;24.70;99.90;;;;;;5031843;28;20176;-64
2022/09/02 07:54:06;;;;;;;3.13;2.90;;;24.70;99.90;;;;;;5031537;28;20221;-63
2022/09/02 07:56:32;;;;;;;3.45;2.70;;;24.50;99.90;;;;;;5031912;28;20669;-63
2022/09/02 07:58:57;;;;;;;3.22;2.97;;;24.20;99.90;;;;;;5032084;28;20180;-64
2022/09/02 08:01:23;;;;;;;6.78;3.10;;;24.10;99.90;;;;;;5031819;28;20171;-64
2022/09/02 08:03:49;;;;;;;2.80;2.60;;;24.00;99.90;;;;;;5031237;28;20292;-65
2022/09/02 08:06:15;;;;;;;5.00;2.97;;;24.00;99.90;;;;;;5031928;28;20183;-65
2022/09/02 08:08:41;;;;;;;3.33;3.00;;;23.90;99.90;;;;;;5031275;28;20171;-66
2022/09/02 08:11:08;;;;;;;3.38;3.08;;;24.30;99.90;;;;;;5031984;28;20178;-66
2022/09/02 08:13:35;;;;;;;3.25;2.95;;;24.80;99.90;;;;;;5031118;28;20190;-65
2022/09/02 08:16:01;;;;;;;4.80;2.72;;;25.20;99.90;;;;;;5031540;28;20202;-67
2022/09/02 08:18:28;;;;;;;3.33;3.00;;;25.30;99.90;;;;;;5031297;28;20214;-66
2022/09/02 08:20:54;;;;;;;2.80;2.60;;;25.40;99.90;;;;;;5031583;28;20171;-65
2022/09/02 08:23:20;;;;;;;3.30;3.10;;;25.60;99.90;;;;;;5031135;28;20215;-66
2022/09/02 08:25:46;;;;;;;3.08;2.88;;;25.70;99.90;;;;;;5031141;28;20187;-66
2022/09/02 08:28:12;;;;;;;3.00;2.80;;;26.00;99.90;;;;;;5031252;28;20184;-67
2022/09/02 08:30:37;;;;;;;2.90;2.70;;;26.10;99.90;;;;;;5031627;28;20186;-67
2022/09/02 08:33:03;;;;;;;5.75;3.13;;;26.20;99.90;;;;;;5031421;28;20176;-66
2022/09/02 08:35:29;;;;;;;8.05;2.90;;;26.40;99.90;;;;;;5030990;28;20223;-67
2022/09/02 08:38:00;;;;;;;3.25;3.05;;;26.70;99.90;;;;;;5031472;28;20554;-66
2022/09/02 08:40:33;;;;;;;3.67;2.90;;;27.00;99.90;;;;;;5011740;28;20188;-66
2022/09/02 08:43:00;;;;;;;4.10;3.30;;;26.80;99.90;;;;;;5011731;28;20325;-66
2022/09/02 08:45:27;;;;;;;3.60;3.35;;;26.80;99.90;;;;;;5030200;28;20199;-66
2022/09/02 08:48:20;;;;;;;3.83;3.53;;;27.20;99.90;;;;;;5031197;28;20167;-65
2022/09/02 08:50:48;;;;;;;4.65;3.75;;;27.30;99.90;;;;;;5006562;28;20188;-67
2022/09/02 08:53:17;;;;;;;3.63;3.33;;;27.00;99.90;;;;;;5011795;28;20172;-66
2022/09/02 08:55:50;;;;;;;4.10;3.67;;;27.00;99.90;;;;;;5030240;28;20625;-66
2022/09/02 08:58:22;;;;;;;3.45;3.17;;;27.20;99.90;;;;;;5031210;28;20276;-66
2022/09/02 09:01:19;;;;;;;2.53;2.33;;;27.50;99.90;;;;;;5011680;28;20646;-66
2022/09/02 09:04:00;;;;;;;5.15;2.63;;;27.30;99.90;;;;;;5014241;28;20215;-66
2022/09/02 09:06:43;;;;;;;2.72;2.53;;;27.50;99.90;;;;;;5031007;28;20289;-67
2022/09/02 09:09:21;;;;;;;2.97;2.78;;;27.80;99.90;;;;;;5030895;28;20168;-67
2022/09/02 09:11:59;;;;;;;3.55;2.70;;;27.90;99.90;;;;;;5031457;28;20548;-65
2022/09/02 09:14:41;;;;;;;6.15;3.00;;;27.90;99.90;;;;;;5030462;28;20164;-66
2022/09/02 09:17:27;;;;;;;2.97;2.78;;;27.90;99.90;;;;;;5031426;28;20171;-65
2022/09/02 09:19:57;;;;;;;6.28;2.45;;;28.20;99.90;;;;;;5030755;28;20167;-65
2022/09/02 09:22:36;;;;;;;3.60;3.33;;;28.50;99.90;;;;;;5030730;28;20199;-65
2022/09/02 09:25:04;;;;;;;2.85;2.50;;;28.60;99.90;;;;;;5030711;28;20188;-66
2022/09/02 09:27:30;;;;;;;2.72;2.53;;;28.50;99.90;;;;;;5030705;28;20164;-65
2022/09/02 09:29:55;;;;;;;3.08;2.88;;;28.40;99.90;;;;;;5030954;28;20727;-65
2022/09/02 09:32:35;;;;;;;2.70;2.50;;;28.20;99.90;;;;;;5030637;28;20642;-64
2022/09/02 09:35:06;;;;;;;2.95;2.70;;;27.80;99.90;;;;;;5028663;28;20211;-67
2022/09/02 09:37:49;;;;;;;6.22;2.75;;;27.70;99.90;;;;;;5030377;28;20591;-67
2022/09/02 09:40:21;;;;;;;3.90;2.80;;;27.70;99.90;;;;;;5022132;28;20172;-66
2022/09/02 09:43:04;;;;;;;3.40;3.08;;;27.90;99.90;;;;;;5030807;28;20282;-67
2022/09/02 09:45:32;;;;;;;2.78;2.58;;;27.90;99.90;;;;;;5030495;28;20206;-67
2022/09/02 09:48:21;;;;;;;4.65;2.30;;;27.90;99.90;;;;;;5030309;28;20195;-65
2022/09/02 09:51:11;;;;;;;3.20;3.00;;;28.00;99.90;;;;;;5030963;28;20247;-66
2022/09/02 09:53:38;;;;;;;3.20;3.00;;;28.00;99.90;;;;;;5025310;28;20669;-66
2022/09/02 09:56:05;;;;;;;3.60;3.33;;;28.40;99.90;;;;;;5030808;28;20203;-66
2022/09/02 09:58:40;;;;;;;4.00;2.67;;;28.60;99.90;;;;;;5032294;28;20183;-66
2022/09/02 10:01:30;;;;;;;3.15;2.95;;;28.40;99.90;;;;;;5034333;28;20179;-67
2022/09/02 10:04:06;;;;;;;3.58;2.58;;;28.60;99.90;;;;;;5033627;28;20207;-66
2022/09/02 10:06:32;;;;;;;3.25;3.03;;;28.70;99.00;;;;;;5034012;28;20203;-66
2022/09/02 10:09:17;;;;;;;2.30;2.20;;;29.00;99.90;;;;;;5033922;28;20184;-66
2022/09/02 10:12:12;;;;;;;3.30;2.65;;;29.40;97.20;;;;;;5034858;28;20521;-66
2022/09/02 10:14:44;;;;;;;3.35;3.15;;;29.20;95.80;;;;;;5008979;28;20264;-67
2022/09/02 10:17:43;;;;;;;2.83;2.63;;;29.30;97.70;;;;;;5030487;28;20221;-66
2022/09/02 10:20:32;;;;;;;2.97;2.70;;;29.60;97.10;;;;;;5034159;28;20250;-66
2022/09/02 10:23:27;;;;;;;2.83;2.38;;;29.90;95.90;;;;;;5014210;28;20215;-65
2022/09/02 10:26:05;;;;;;;2.63;2.53;;;30.20;93.90;;;;;;5018154;28;20609;-65
2022/09/02 10:29:21;;;;;;;3.08;2.75;;;30.00;94.00;;;;;;5034022;28;20179;-64
2022/09/02 10:32:07;;;;;;;3.33;3.03;;;29.60;93.20;;;;;;5001225;28;20688;-66
2022/09/02 10:34:55;;;;;;;3.20;2.90;;;29.30;94.90;;;;;;5013687;28;20202;-66
2022/09/02 10:37:30;;;;;;;2.90;2.70;;;29.40;93.80;;;;;;5029705;28;20736;-65
2022/09/02 10:40:07;;;;;;;2.65;2.45;;;29.80;93.50;;;;;;5033740;28;20186;-65
2022/09/02 10:42:52;;;;;;;5.22;3.03;;;29.90;92.20;;;;;;5033205;28;20288;-64
2022/09/02 10:45:30;;;;;;;3.47;3.20;;;29.50;91.90;;;;;;5033022;28;20195;-65
2022/09/02 10:48:16;;;;;;;3.22;2.67;;;29.50;91.80;;;;;;5033120;28;20676;-65
2022/09/02 10:51:20;;;;;;;5.20;2.50;;;29.50;91.40;;;;;;5033625;28;20511;-65
2022/09/02 10:54:09;;;;;;;2.92;2.60;;;29.50;91.80;;;;;;5000682;28;20188;-65
2022/09/02 10:56:52;;;;;;;3.05;2.85;;;29.50;90.40;;;;;;5020189;28;20206;-66
2022/09/02 10:59:34;;;;;;;3.58;3.00;;;29.20;90.60;;;;;;5033053;28;20226;-66
2022/09/02 11:02:27;;;;;;;3.88;2.55;;;28.90;91.00;;;;;;5032910;28;20191;-66
2022/09/02 11:05:01;;;;;;;3.80;2.75;;;29.10;91.00;;;;;;5032627;28;20200;-65
2022/09/02 11:07:39;;;;;;;6.10;2.85;;;29.20;90.90;;;;;;5033097;28;20174;-66
2022/09/02 11:10:30;;;;;;;2.88;2.67;;;29.00;90.50;;;;;;5032509;28;20184;-67
2022/09/02 11:13:04;;;;;;;2.97;2.78;;;28.90;89.80;;;;;;5033408;28;20255;-66
2022/09/02 11:15:51;;;;;;;2.45;2.30;;;28.70;87.60;;;;;;5032082;28;20289;-66
2022/09/02 11:18:34;;;;;;;2.60;2.40;;;28.30;88.60;;;;;;5032960;28;20171;-66
2022/09/02 11:21:03;;;;;;;2.60;2.40;;;28.10;89.80;;;;;;5032690;28;20214;-67
2022/09/02 11:23:45;;;;;;;4.28;2.60;;;28.40;88.50;;;;;;5032308;28;20211;-66
2022/09/02 11:26:35;;;;;;;3.17;2.20;;;28.90;90.10;;;;;;5032490;28;20211;-65
2022/09/02 11:29:20;;;;;;;2.42;2.30;;;29.50;86.70;;;;;;5032538;28;20173;-67
2022/09/02 11:32:11;;;;;;;2.67;2.50;;;30.20;84.40;;;;;;5032506;28;20172;-66
2022/09/02 11:34:44;;;;;;;5.53;2.80;;;30.20;81.20;;;;;;5031882;28;20175;-67
2022/09/02 11:37:23;;;;;;;2.53;2.42;;;30.10;84.10;;;;;;5032508;28;20263;-67
2022/09/02 11:39:59;;;;;;;2.50;2.15;;;29.90;82.80;;;;;;5032200;28;20190;-67
2022/09/02 11:42:53;;;;;;;2.88;2.70;;;29.60;82.30;;;;;;5032232;28;20191;-67
2022/09/02 11:45:52;;;;;;;2.92;2.72;;;29.80;81.60;;;;;;5031764;28;20188;-66
2022/09/02 11:48:28;;;;;;;2.47;2.38;;;29.80;79.90;;;;;;5031196;28;20538;-65
2022/09/02 11:51:15;;;;;;;2.50;2.30;;;29.40;78.10;;;;;;5031921;28;20179;-66
2022/09/02 11:53:43;;;;;;;2.92;2.72;;;29.50;80.20;;;;;;5031771;28;20180;-64
2022/09/02 11:56:27;;;;;;;2.63;2.42;;;29.90;78.90;;;;;;5028652;28;20210;-65
2022/09/02 11:58:53;;;;;;;2.80;2.60;;;30.30;79.30;;;;;;5031748;28;20518;-66
2022/09/02 12:01:36;;;;;;;2.97;2.60;;;30.60;78.20;;;;;;5032176;28;20180;-66
2022/09/02 12:04:25;;;;;;;2.95;2.75;;;30.90;76.40;;;;;;5031188;28;20234;-65
2022/09/02 12:07:05;;;;;;;2.50;2.30;;;31.00;75.30;;;;;;5032138;28;20167;-66
2022/09/02 12:09:55;;;;;;;2.38;2.28;;;30.90;73.80;;;;;;5020656;28;20262;-66
2022/09/02 12:12:37;;;;;;;3.05;2.63;;;30.80;74.60;;;;;;5031592;28;20260;-66
2022/09/02 12:15:06;;;;;;;2.65;2.45;;;30.90;74.30;;;;;;5030801;28;20739;-66
2022/09/02 12:17:48;;;;;;;2.80;2.60;;;30.70;71.50;;;;;;5013601;28;20263;-66
2022/09/02 12:20:36;;;;;;;2.78;2.58;;;30.70;72.60;;;;;;5010673;28;20172;-65
2022/09/02 12:23:03;;;;;;;4.55;2.63;;;30.50;71.90;;;;;;5019541;28;20246;-66
2022/09/02 12:25:37;;;;;;;2.55;2.40;;;30.30;72.40;;;;;;5030740;28;20191;-64
2022/09/02 12:28:24;;;;;;;2.47;2.35;;;30.50;74.00;;;;;;5030771;28;20222;-65
2022/09/02 12:31:00;;;;;;;4.10;2.38;;;30.80;71.80;;;;;;5031056;28;20812;-65
2022/09/02 12:33:36;;;;;;;2.70;2.55;;;30.90;71.40;;;;;;5020588;28;20211;-64
2022/09/02 12:36:03;;;;;;;2.65;2.45;;;30.60;69.60;;;;;;5021560;28;20218;-63
2022/09/02 12:38:32;;;;;;;2.78;2.50;;;30.70;71.50;;;;;;5028908;28;20591;-64
2022/09/02 12:41:03;;;;;;;2.50;2.30;;;31.00;72.50;;;;;;5031186;28;20168;-65
2022/09/02 12:43:31;;;;;;;3.78;2.30;;;31.30;68.70;;;;;;5030313;28;20569;-65
2022/09/02 12:46:11;;;;;;;3.38;2.38;;;31.40;70.00;;;;;;5031311;28;20199;-64
2022/09/02 12:48:43;;;;;;;2.55;2.35;;;31.20;68.50;;;;;;5030654;28;20171;-65
2022/09/02 12:51:09;;;;;;;2.35;2.25;;;31.10;68.20;;;;;;5031063;28;20210;-65
2022/09/02 12:53:41;;;;;;;2.50;2.30;;;31.20;68.70;;;;;;5030472;28;20218;-64
2022/09/02 12:56:12;;;;;;;2.78;2.60;;;31.30;67.30;;;;;;5024071;28;20286;-64
2022/09/02 12:58:50;;;;;;;2.30;2.20;;;31.30;67.00;;;;;;5028253;28;20175;-66
2022/09/02 13:01:24;;;;;;;3.08;2.88;;;31.30;67.50;;;;;;5022859;28;20238;-66
2022/09/02 13:03:59;;;;;;;3.20;2.92;;;31.60;67.90;;;;;;5013231;28;20354;-66
